createdAt,value
2022-09-03T00:03:47.484Z,3.50
2022-09-03T00:08:19.056Z,2.87
2022-09-03T00:12:34.006Z,3.27
2022-09-03T00:16:52.529Z,3.60
2022-09-03T00:21:22.298Z,3.83
2022-09-03T00:25:37.090Z,3.80
2022-09-03T00:29:57.892Z,3.20
2022-09-03T00:34:09.579Z,3.50
2022-09-03T00:38:18.212Z,3.33
2022-09-03T00:42:48.137Z,2.83
2022-09-03T00:47:11.827Z,3.53
2022-09-03T00:51:35.626Z,3.50
2022-09-03T00:55:54.312Z,4.00
2022-09-03T01:00:19.597Z,3.43
2022-09-03T01:04:45.921Z,3.10
2022-09-03T01:09:03.328Z,3.67
2022-09-03T01:13:24.199Z,3.10
2022-09-03T01:17:43.370Z,3.20
2022-09-03T01:22:18.415Z,3.40
2022-09-03T01:26:47.911Z,2.93
2022-09-03T01:31:10.176Z,3.30
2022-09-03T01:35:21.884Z,2.97
2022-09-03T01:39:54.310Z,3.30
2022-09-03T01:44:40.626Z,3.40
2022-09-03T01:49:01.587Z,3.00
2022-09-03T01:53:47.647Z,3.60
2022-09-03T01:58:17.154Z,3.27
2022-09-03T02:02:28.098Z,3.00
2022-09-03T02:06:36.782Z,2.63
2022-09-03T02:10:48.542Z,3.30
2022-09-03T02:14:57.420Z,3.40
2022-09-03T02:19:12.460Z,3.60
2022-09-03T02:23:31.846Z,3.80
2022-09-03T02:27:40.720Z,3.90
2022-09-03T02:32:08.731Z,4.53
2022-09-03T02:36:20.729Z,3.50
2022-09-03T02:40:29.278Z,3.60
2022-09-03T02:44:40.959Z,3.83
2022-09-03T02:48:50.156Z,4.07
2022-09-03T02:53:18.253Z,3.50
2022-09-03T02:57:27.739Z,3.90
2022-09-03T03:01:37.938Z,3.50
2022-09-03T03:05:52.496Z,3.43
2022-09-03T03:10:01.227Z,3.93
2022-09-03T03:14:10.328Z,4.90
2022-09-03T03:18:19.537Z,3.83
2022-09-03T03:22:48.139Z,3.60
2022-09-03T03:27:00.816Z,4.47
2022-09-03T03:31:18.215Z,3.63
2022-09-03T03:35:27.237Z,4.50
2022-09-03T03:39:35.925Z,4.80
2022-09-03T03:43:45.407Z,4.30
2022-09-03T03:47:55.546Z,4.57
2022-09-03T03:52:04.563Z,3.77
2022-09-03T03:56:16.295Z,3.90
2022-09-03T04:00:26.405Z,4.00
2022-09-03T04:04:35.052Z,3.90
2022-09-03T04:08:46.743Z,4.30
2022-09-03T04:12:58.224Z,4.50
2022-09-03T04:17:06.846Z,4.00
2022-09-03T04:21:21.075Z,3.70
2022-09-03T04:25:50.552Z,4.00
2022-09-03T04:29:59.175Z,5.47
2022-09-03T04:34:07.993Z,4.40
2022-09-03T04:38:17.287Z,4.13
2022-09-03T04:42:26.093Z,4.50
2022-09-03T04:46:34.753Z,4.73
2022-09-03T04:50:43.384Z,4.70
2022-09-03T04:54:52.211Z,4.50
2022-09-03T04:59:06.806Z,4.43
2022-09-03T05:03:15.423Z,3.73
2022-09-03T05:07:24.051Z,3.97
2022-09-03T05:11:33.211Z,4.23
2022-09-03T05:15:43.474Z,3.73
2022-09-03T05:19:52.146Z,4.03
2022-09-03T05:24:01.846Z,4.73
2022-09-03T05:28:11.026Z,4.43
2022-09-03T05:32:19.643Z,4.43
2022-09-03T05:36:31.799Z,4.57
2022-09-03T05:40:41.676Z,3.80
2022-09-03T05:44:50.302Z,4.30
2022-09-03T05:49:03.991Z,3.50
2022-09-03T05:53:12.593Z,4.00
2022-09-03T05:57:21.261Z,3.60
2022-09-03T06:01:32.862Z,3.90
2022-09-03T06:05:41.463Z,4.07
2022-09-03T06:09:50.454Z,4.70
2022-09-03T06:14:06.016Z,3.93
2022-09-03T06:18:14.647Z,4.03
2022-09-03T06:22:25.379Z,4.00
2022-09-03T06:26:35.582Z,3.40
2022-09-03T06:30:44.282Z,3.70
2022-09-03T06:34:54.005Z,3.43
2022-09-03T06:39:02.894Z,3.70
2022-09-03T06:43:11.602Z,3.53
2022-09-03T06:47:20.206Z,3.83
2022-09-03T06:51:30.944Z,3.60
2022-09-03T06:55:40.130Z,3.83
2022-09-03T06:59:49.623Z,3.97
2022-09-03T07:04:01.097Z,3.87
2022-09-03T07:08:10.558Z,3.63
2022-09-03T07:12:19.340Z,3.17
2022-09-03T07:16:30.832Z,3.00
2022-09-03T07:20:39.666Z,3.93
2022-09-03T07:24:48.540Z,3.35
2022-09-03T07:28:57.774Z,3.43
2022-09-03T07:33:07.360Z,3.47
2022-09-03T07:37:15.963Z,2.90
2022-09-03T07:41:28.769Z,2.80
2022-09-03T07:45:38.510Z,3.17
2022-09-03T07:49:47.113Z,3.10
2022-09-03T07:53:59.230Z,3.27
2022-09-03T07:58:07.838Z,3.80
2022-09-03T08:02:16.443Z,2.93
2022-09-03T08:06:28.012Z,3.07
2022-09-03T08:10:38.722Z,2.63
2022-09-03T08:14:48.072Z,3.33
2022-09-03T08:18:56.890Z,2.67
2022-09-03T08:23:05.539Z,3.03
2022-09-03T08:27:14.150Z,2.67
2022-09-03T08:31:25.134Z,3.30
2022-09-03T08:35:54.744Z,3.00
2022-09-03T08:40:05.523Z,3.00
2022-09-03T08:44:26.068Z,2.97
2022-09-03T08:48:35.413Z,3.00
2022-09-03T08:53:05.407Z,2.60
2022-09-03T08:57:15.329Z,2.90
2022-09-03T09:01:43.100Z,2.10
2022-09-03T09:05:57.799Z,2.40
2022-09-03T09:10:21.513Z,2.53
2022-09-03T09:15:00.392Z,2.47
2022-09-03T09:19:15.205Z,2.27
2022-09-03T09:23:29.802Z,2.80
2022-09-03T09:27:38.691Z,2.50
2022-09-03T09:31:47.237Z,2.83
2022-09-03T09:35:56.285Z,2.70
2022-09-03T09:40:05.218Z,2.43
2022-09-03T09:48:52.641Z,2.40
2022-09-03T09:53:08.583Z,3.00
2022-09-03T09:57:21.011Z,2.40
2022-09-03T10:01:31.351Z,2.67
2022-09-03T10:05:40.646Z,2.57
2022-09-03T10:10:01.201Z,3.70
2022-09-03T10:14:21.832Z,2.50
2022-09-03T10:18:33.526Z,2.90
2022-09-03T10:22:56.229Z,2.63
2022-09-03T10:26:58.416Z,2.77
2022-09-03T10:31:13.644Z,2.87
2022-09-03T10:35:37.447Z,2.23
2022-09-03T10:40:10.684Z,2.67
2022-09-03T10:44:40.442Z,2.40
2022-09-03T10:48:54.905Z,2.87
2022-09-03T10:53:27.597Z,3.57
2022-09-03T10:57:42.191Z,3.10
2022-09-03T11:01:53.927Z,3.30
2022-09-03T11:06:14.920Z,2.43
2022-09-03T11:10:32.400Z,2.63
2022-09-03T11:14:44.048Z,3.07
2022-09-03T11:19:04.343Z,3.40
2022-09-03T11:23:14.877Z,3.10
2022-09-03T11:27:56.412Z,3.03
2022-09-03T11:32:11.807Z,2.83
2022-09-03T11:36:36.848Z,2.60
2022-09-03T11:40:57.688Z,3.23
2022-09-03T11:45:26.136Z,3.87
2022-09-03T11:49:36.283Z,3.13
2022-09-03T11:53:57.118Z,3.50
2022-09-03T11:58:14.948Z,4.07
2022-09-03T12:02:34.382Z,3.23
2022-09-03T12:07:02.628Z,3.80
2022-09-03T12:11:23.520Z,3.43
2022-09-03T12:15:54.609Z,3.57
2022-09-03T12:20:04.500Z,3.07
2022-09-03T12:24:13.987Z,2.70
2022-09-03T12:28:25.303Z,3.90
2022-09-03T12:32:37.370Z,3.70
2022-09-03T12:36:49.263Z,3.13
2022-09-03T12:45:14.929Z,3.70
2022-09-03T12:49:30.935Z,4.20
2022-09-03T12:53:34.611Z,2.80
2022-09-03T12:57:49.028Z,3.03
2022-09-03T13:02:03.276Z,3.00
2022-09-03T13:06:15.185Z,3.00
2022-09-03T13:10:32.261Z,3.17
2022-09-03T13:14:52.351Z,3.70
2022-09-03T13:19:34.285Z,3.40
2022-09-03T13:23:57.820Z,2.90
2022-09-03T13:28:27.761Z,3.07
2022-09-03T13:33:01.075Z,3.13
2022-09-03T13:37:44.504Z,3.27
2022-09-03T13:42:06.176Z,3.40
2022-09-03T13:46:20.670Z,3.50
2022-09-03T13:50:32.206Z,3.30
2022-09-03T13:54:50.080Z,3.97
2022-09-03T13:59:05.212Z,3.60
2022-09-03T14:03:19.537Z,3.50
2022-09-03T14:07:36.851Z,3.70
2022-09-03T14:12:06.599Z,3.63
2022-09-03T14:16:42.548Z,3.90
2022-09-03T14:21:06.252Z,3.37
2022-09-03T14:25:20.825Z,3.77
2022-09-03T14:29:34.647Z,5.17
2022-09-03T14:34:06.000Z,3.90
2022-09-03T14:38:26.532Z,3.83
2022-09-03T14:42:47.128Z,4.07
2022-09-03T14:47:07.134Z,4.40
2022-09-03T14:51:19.919Z,5.47
2022-09-03T14:55:54.571Z,6.27
2022-09-03T15:00:11.996Z,6.67
2022-09-03T15:04:39.031Z,6.10
2022-09-03T15:09:08.829Z,4.70
2022-09-03T15:13:20.698Z,4.67
2022-09-03T15:18:07.033Z,7.50
2022-09-03T15:22:21.271Z,6.50
2022-09-03T15:26:52.771Z,4.17
2022-09-03T15:31:04.432Z,4.77
2022-09-03T15:35:31.281Z,5.37
2022-09-03T15:39:44.376Z,4.60
2022-09-03T15:43:54.741Z,5.30
2022-09-03T15:48:29.155Z,5.10
2022-09-03T15:53:03.341Z,6.13
2022-09-03T15:57:15.101Z,6.80
2022-09-03T16:01:31.396Z,7.40
2022-09-03T16:06:02.356Z,4.23
2022-09-03T16:10:24.551Z,4.63
2022-09-03T16:14:39.442Z,4.00
2022-09-03T16:19:09.998Z,4.37
2022-09-03T16:23:24.277Z,4.30
2022-09-03T16:27:36.266Z,4.83
2022-09-03T16:32:06.041Z,4.10
2022-09-03T16:36:37.549Z,3.90
2022-09-03T16:40:49.251Z,4.13
2022-09-03T16:45:29.662Z,4.20
2022-09-03T16:49:41.336Z,4.10
2022-09-03T16:54:12.519Z,4.40
2022-09-03T16:58:43.550Z,3.87
2022-09-03T17:03:16.619Z,5.00
2022-09-03T17:08:04.892Z,4.17
2022-09-03T17:12:28.230Z,4.17
2022-09-03T17:17:06.489Z,3.63
2022-09-03T17:21:20.738Z,4.77
2022-09-03T17:25:35.510Z,3.80
2022-09-03T17:29:53.496Z,3.80
2022-09-03T17:34:38.816Z,4.10
2022-09-03T17:39:14.781Z,3.77
2022-09-03T17:43:41.279Z,4.07
2022-09-03T17:47:52.866Z,4.67
2022-09-03T17:52:10.220Z,3.50
2022-09-03T17:56:24.642Z,3.87
2022-09-03T18:00:39.009Z,3.50
2022-09-03T18:04:56.688Z,3.60
2022-09-03T18:09:11.111Z,3.57
2022-09-03T18:13:42.580Z,3.50
2022-09-03T18:17:54.205Z,3.90
2022-09-03T18:22:23.090Z,3.70
2022-09-03T18:26:52.504Z,3.17
2022-09-03T18:31:19.418Z,3.67
2022-09-03T18:35:48.567Z,3.03
2022-09-03T18:40:14.904Z,3.37
2022-09-03T18:45:20.489Z,3.50
2022-09-03T18:49:50.294Z,3.83
2022-09-03T18:55:06.226Z,3.87
2022-09-03T18:59:21.680Z,3.77
2022-09-03T19:04:00.351Z,3.70
2022-09-03T19:08:35.806Z,4.70
2022-09-03T19:13:25.708Z,3.50
2022-09-03T19:18:21.640Z,4.63
2022-09-03T19:22:54.324Z,4.57
2022-09-03T19:27:52.107Z,4.60
2022-09-03T19:32:09.512Z,3.37
2022-09-03T19:36:41.798Z,3.87
2022-09-03T19:46:01.459Z,3.57
2022-09-03T19:50:43.916Z,3.47
2022-09-03T19:55:15.443Z,4.40
2022-09-03T19:59:44.809Z,3.73
2022-09-03T20:04:11.844Z,4.43
2022-09-03T20:08:40.341Z,3.90
2022-09-03T20:12:52.057Z,3.90
2022-09-03T20:17:09.598Z,3.93
2022-09-03T20:21:47.302Z,3.63
2022-09-03T20:26:17.099Z,3.30
2022-09-03T20:30:55.831Z,3.97
2022-09-03T20:35:24.407Z,4.63
2022-09-03T20:39:38.743Z,4.27
2022-09-03T20:44:10.965Z,3.80
2022-09-03T20:48:46.347Z,3.73
2022-09-03T20:53:02.048Z,3.30
2022-09-03T20:57:16.725Z,3.60
2022-09-03T21:01:38.457Z,3.70
2022-09-03T21:05:56.178Z,3.70
2022-09-03T21:10:10.527Z,4.27
2022-09-03T21:14:22.232Z,3.70
2022-09-03T21:18:45.494Z,3.87
2022-09-03T21:23:16.565Z,4.70
2022-09-03T21:27:30.923Z,4.77
2022-09-03T21:31:42.652Z,3.70
2022-09-03T21:36:14.994Z,4.50
2022-09-03T21:40:26.801Z,3.70
2022-09-03T21:44:58.210Z,4.80
2022-09-03T21:49:10.910Z,4.20
2022-09-03T21:53:25.292Z,4.20
2022-09-03T21:57:36.896Z,3.70
2022-09-03T22:01:51.200Z,4.00
2022-09-03T22:06:25.721Z,3.33
2022-09-03T22:10:41.781Z,3.03
2022-09-03T22:14:53.541Z,3.30
2022-09-03T22:19:02.081Z,2.80
2022-09-03T22:23:14.028Z,3.90
2022-09-03T22:27:45.287Z,3.10
2022-09-03T22:32:05.706Z,3.23
2022-09-03T22:36:23.125Z,2.87
2022-09-03T22:40:40.634Z,3.57
2022-09-03T22:44:54.765Z,3.40
2022-09-03T22:49:15.375Z,3.23
2022-09-03T22:53:33.183Z,3.77
2022-09-03T22:58:00.556Z,2.87
2022-09-03T23:02:18.268Z,3.40
2022-09-03T23:06:32.509Z,3.60
2022-09-03T23:11:07.669Z,3.20
2022-09-03T23:15:26.964Z,3.00
2022-09-03T23:19:41.643Z,2.93
2022-09-03T23:23:59.556Z,2.80
2022-09-03T23:28:26.703Z,3.60
2022-09-03T23:32:37.284Z,3.43
2022-09-03T23:37:22.590Z,3.40
2022-09-03T23:41:13.426Z,3.33
2022-09-03T23:45:28.887Z,3.50
2022-09-03T23:49:46.518Z,4.00
2022-09-03T23:54:00.754Z,3.50
2022-09-03T23:58:36.720Z,3.60
